createdAt,value
2016-12-07T00:00:14.853Z,0
2016-12-07T00:01:15.541Z,0
2016-12-07T00:02:16.303Z,0
2016-12-07T00:03:16.955Z,0
2016-12-07T00:04:17.618Z,0
2016-12-07T00:05:18.373Z,0
2016-12-07T00:06:19.036Z,0
2016-12-07T00:07:19.737Z,0
2016-12-07T00:08:20.380Z,0
2016-12-07T00:09:21.008Z,0
2016-12-07T00:10:21.648Z,0
2016-12-07T00:11:22.308Z,0
2016-12-07T00:12:22.989Z,0
2016-12-07T00:13:23.664Z,0
2016-12-07T00:14:24.360Z,0
2016-12-07T00:15:25.007Z,0
2016-12-07T00:16:25.646Z,0
2016-12-07T00:17:26.282Z,0
2016-12-07T00:18:26.995Z,0
2016-12-07T00:19:27.621Z,0
2016-12-07T00:20:28.293Z,0
2016-12-07T00:21:29.653Z,0
2016-12-07T00:22:30.294Z,0
2016-12-07T00:23:30.974Z,0
2016-12-07T00:24:31.755Z,0
2016-12-07T00:25:32.453Z,0
2016-12-07T00:26:33.171Z,0
2016-12-07T00:27:33.819Z,0
2016-12-07T00:28:34.461Z,0
2016-12-07T00:29:35.140Z,0
2016-12-07T00:30:35.802Z,0
2016-12-07T00:31:36.489Z,0
2016-12-07T00:32:37.119Z,0
2016-12-07T00:33:37.879Z,0
2016-12-07T00:34:38.457Z,0
2016-12-07T00:35:39.094Z,0
2016-12-07T00:36:39.764Z,0
2016-12-07T00:37:40.393Z,0
2016-12-07T00:38:41.027Z,0
2016-12-07T00:39:41.675Z,0
2016-12-07T00:40:42.384Z,0
2016-12-07T00:41:43.067Z,0
2016-12-07T00:42:43.705Z,0
2016-12-07T00:43:44.362Z,0
2016-12-07T00:44:45.059Z,0
2016-12-07T00:45:45.721Z,0
2016-12-07T00:46:46.307Z,0
2016-12-07T00:47:46.942Z,0
2016-12-07T00:48:47.609Z,0
2016-12-07T00:49:48.274Z,0
2016-12-07T00:50:48.916Z,0
2016-12-07T00:51:49.576Z,0
2016-12-07T00:52:50.231Z,0
2016-12-07T00:53:50.867Z,0
2016-12-07T00:54:51.503Z,0
2016-12-07T00:55:52.163Z,0
2016-12-07T00:56:52.811Z,0
2016-12-07T00:57:53.456Z,0
2016-12-07T00:58:54.097Z,0
2016-12-07T00:59:54.768Z,0
2016-12-07T01:00:55.399Z,0
2016-12-07T01:01:56.101Z,0
2016-12-07T01:02:56.868Z,0
2016-12-07T01:03:57.535Z,0
2016-12-07T01:04:58.166Z,0
2016-12-07T01:05:58.883Z,0
2016-12-07T01:06:59.537Z,0
2016-12-07T01:08:00.181Z,0
2016-12-07T01:09:00.844Z,0
2016-12-07T01:10:01.476Z,0
2016-12-07T01:11:02.126Z,0
2016-12-07T01:12:02.763Z,0
2016-12-07T01:13:03.497Z,0
2016-12-07T01:14:04.128Z,0
2016-12-07T01:15:04.819Z,0
2016-12-07T01:16:05.489Z,0
2016-12-07T01:17:06.225Z,0
2016-12-07T01:18:06.798Z,0
2016-12-07T01:19:07.481Z,0
2016-12-07T01:20:08.172Z,0
2016-12-07T01:21:08.777Z,0
2016-12-07T01:22:09.495Z,0
2016-12-07T01:23:10.207Z,0
2016-12-07T01:24:10.890Z,0
2016-12-07T01:25:11.553Z,0
2016-12-07T01:26:12.199Z,0
2016-12-07T01:27:12.831Z,0
2016-12-07T01:28:13.573Z,0
2016-12-07T01:29:14.159Z,0
2016-12-07T01:30:14.788Z,0
2016-12-07T01:31:15.447Z,0
2016-12-07T01:32:16.144Z,0
2016-12-07T01:33:16.810Z,0
2016-12-07T01:34:17.494Z,0
2016-12-07T01:35:18.154Z,0
2016-12-07T01:36:18.854Z,0
2016-12-07T01:37:19.453Z,0
2016-12-07T01:38:20.087Z,0
2016-12-07T01:39:20.826Z,0
2016-12-07T01:40:21.603Z,0
2016-12-07T01:41:22.293Z,0
2016-12-07T01:42:23.167Z,0
2016-12-07T01:43:23.809Z,0
2016-12-07T01:44:24.467Z,0
2016-12-07T01:45:25.149Z,0
2016-12-07T01:46:25.765Z,0
2016-12-07T01:47:26.408Z,0
2016-12-07T01:48:27.086Z,0
2016-12-07T01:49:27.910Z,0
2016-12-07T01:50:28.679Z,0
2016-12-07T01:51:29.361Z,0
2016-12-07T01:52:30.178Z,0
2016-12-07T01:53:30.824Z,0
2016-12-07T01:54:31.509Z,0
2016-12-07T01:55:32.128Z,0
2016-12-07T01:56:32.805Z,0
2016-12-07T01:57:33.619Z,0
2016-12-07T01:58:34.309Z,0
2016-12-07T01:59:35.017Z,0
2016-12-07T02:00:35.695Z,0
2016-12-07T02:01:36.340Z,0
2016-12-07T02:02:37.029Z,0
2016-12-07T02:03:37.665Z,0
2016-12-07T02:04:38.374Z,0
2016-12-07T02:05:39.173Z,0
2016-12-07T02:06:39.864Z,0
2016-12-07T02:07:40.473Z,0
2016-12-07T02:08:41.121Z,0
2016-12-07T02:09:41.762Z,0
2016-12-07T02:10:42.394Z,0
2016-12-07T02:11:43.071Z,0
2016-12-07T02:12:43.718Z,0
2016-12-07T02:13:44.413Z,0
2016-12-07T02:14:45.060Z,0
2016-12-07T02:15:45.763Z,0
2016-12-07T02:16:46.437Z,0
2016-12-07T02:17:47.067Z,0
2016-12-07T02:18:47.704Z,0
2016-12-07T02:19:48.443Z,0
2016-12-07T02:20:49.091Z,0
2016-12-07T02:21:50.082Z,0
2016-12-07T02:22:50.756Z,0
2016-12-07T02:23:51.395Z,0
2016-12-07T02:24:52.021Z,0
2016-12-07T02:25:52.669Z,0
2016-12-07T02:26:53.329Z,0
2016-12-07T02:27:54.016Z,0
2016-12-07T02:28:54.641Z,0
2016-12-07T02:29:55.290Z,0
2016-12-07T02:30:55.920Z,0
2016-12-07T02:31:56.550Z,0
2016-12-07T02:32:57.287Z,0
2016-12-07T02:33:57.945Z,0
2016-12-07T02:34:58.674Z,0
2016-12-07T02:35:59.338Z,0
2016-12-07T02:36:59.993Z,0
2016-12-07T02:38:00.645Z,0
2016-12-07T02:39:01.288Z,0
2016-12-07T02:40:01.967Z,0
2016-12-07T02:41:02.648Z,0
2016-12-07T02:42:03.325Z,0
2016-12-07T02:43:03.985Z,0
2016-12-07T02:44:04.734Z,0
2016-12-07T02:45:05.310Z,0
2016-12-07T02:46:05.991Z,0
2016-12-07T02:47:06.677Z,0
2016-12-07T02:48:07.318Z,0
2016-12-07T02:49:07.940Z,0
2016-12-07T02:50:08.640Z,0
2016-12-07T02:51:09.258Z,0
2016-12-07T02:52:09.918Z,0
2016-12-07T02:53:10.564Z,0
2016-12-07T02:54:11.449Z,0
2016-12-07T02:55:12.276Z,0
2016-12-07T02:56:12.909Z,0
2016-12-07T02:57:13.558Z,0
2016-12-07T02:58:14.254Z,0
2016-12-07T02:59:14.988Z,0
2016-12-07T03:00:15.736Z,0
2016-12-07T03:01:16.376Z,0
2016-12-07T03:02:17.058Z,0
2016-12-07T03:03:17.740Z,0
2016-12-07T03:04:18.373Z,0
2016-12-07T03:05:19.052Z,0
2016-12-07T03:06:19.693Z,0
2016-12-07T03:07:20.451Z,0
2016-12-07T03:08:21.032Z,0
2016-12-07T03:09:21.741Z,0
2016-12-07T03:10:22.410Z,0
2016-12-07T03:11:23.028Z,0
2016-12-07T03:12:23.663Z,0
2016-12-07T03:13:24.275Z,0
2016-12-07T03:14:24.917Z,0
2016-12-07T03:15:25.595Z,0
2016-12-07T03:16:26.408Z,0
2016-12-07T03:17:27.086Z,0
2016-12-07T03:18:27.735Z,0
2016-12-07T03:19:28.373Z,0
2016-12-07T03:20:29.017Z,0
2016-12-07T03:21:29.705Z,0
2016-12-07T03:22:30.421Z,0
2016-12-07T03:23:31.160Z,0
2016-12-07T03:24:31.817Z,0
2016-12-07T03:25:32.533Z,0
2016-12-07T03:26:33.147Z,0
2016-12-07T03:27:33.833Z,0
2016-12-07T03:28:34.495Z,0
2016-12-07T03:29:35.158Z,0
2016-12-07T03:30:35.814Z,0
2016-12-07T03:31:36.476Z,0
2016-12-07T03:32:37.121Z,0
2016-12-07T03:33:37.810Z,0
2016-12-07T03:34:38.422Z,0
2016-12-07T03:35:39.079Z,0
2016-12-07T03:36:39.739Z,0
2016-12-07T03:37:40.404Z,0
2016-12-07T03:38:41.038Z,0
2016-12-07T03:39:41.781Z,0
2016-12-07T03:40:42.367Z,0
2016-12-07T03:41:43.025Z,0
2016-12-07T03:42:43.678Z,0
2016-12-07T03:43:44.341Z,0
2016-12-07T03:44:44.978Z,0
2016-12-07T03:45:45.629Z,0
2016-12-07T03:46:46.276Z,0
2016-12-07T03:47:46.983Z,0
2016-12-07T03:48:47.573Z,0
2016-12-07T03:49:48.232Z,0
2016-12-07T03:50:48.858Z,0
2016-12-07T03:51:49.496Z,0
2016-12-07T03:52:50.143Z,0
2016-12-07T03:53:50.821Z,0
2016-12-07T03:54:51.469Z,0
2016-12-07T03:55:52.109Z,0
2016-12-07T03:56:52.786Z,0
2016-12-07T03:57:53.458Z,0
2016-12-07T03:58:54.121Z,0
2016-12-07T03:59:54.842Z,0
2016-12-07T04:00:55.440Z,0
2016-12-07T04:01:56.123Z,0
2016-12-07T04:02:56.868Z,0
2016-12-07T04:03:57.517Z,0
2016-12-07T04:04:58.166Z,0
2016-12-07T04:05:58.869Z,0
2016-12-07T04:06:59.471Z,0
2016-12-07T04:08:00.121Z,0
2016-12-07T04:09:00.802Z,0
2016-12-07T04:10:01.445Z,0
2016-12-07T04:11:02.086Z,0
2016-12-07T04:12:02.735Z,0
2016-12-07T04:13:03.378Z,0
2016-12-07T04:14:04.043Z,0
2016-12-07T04:15:04.706Z,0
2016-12-07T04:16:05.428Z,0
2016-12-07T04:17:06.086Z,0
2016-12-07T04:18:06.703Z,0
2016-12-07T04:19:07.347Z,0
2016-12-07T04:20:08.018Z,0
2016-12-07T04:21:08.669Z,0
2016-12-07T04:22:09.298Z,0
2016-12-07T04:23:09.969Z,0
2016-12-07T04:24:10.624Z,0
2016-12-07T04:25:11.240Z,0
2016-12-07T04:26:11.878Z,0
2016-12-07T04:27:12.551Z,0
2016-12-07T04:28:13.176Z,0
2016-12-07T04:29:13.828Z,0
2016-12-07T04:30:14.489Z,0
2016-12-07T04:31:15.163Z,0
2016-12-07T04:32:15.788Z,0
2016-12-07T04:33:16.435Z,0
2016-12-07T04:34:17.081Z,0
2016-12-07T04:35:17.729Z,0
2016-12-07T04:36:18.351Z,0
2016-12-07T04:37:19.004Z,0
2016-12-07T04:38:19.680Z,0
2016-12-07T04:39:20.339Z,0
2016-12-07T04:40:20.986Z,0
2016-12-07T04:41:21.600Z,0
2016-12-07T04:42:22.230Z,0
2016-12-07T04:43:22.873Z,0
2016-12-07T04:44:23.507Z,0
2016-12-07T04:45:24.169Z,0
2016-12-07T04:46:24.862Z,0
2016-12-07T04:47:25.521Z,0
2016-12-07T04:48:26.181Z,0
2016-12-07T04:49:26.804Z,0
2016-12-07T04:50:27.443Z,0
2016-12-07T04:51:28.106Z,0
2016-12-07T04:52:28.740Z,0
2016-12-07T04:53:29.379Z,0
2016-12-07T04:54:30.052Z,0
2016-12-07T04:55:30.706Z,0
2016-12-07T04:56:31.415Z,0
2016-12-07T04:57:32.056Z,0
2016-12-07T04:58:32.675Z,0
2016-12-07T04:59:33.314Z,0
2016-12-07T05:00:33.972Z,0
2016-12-07T05:01:34.609Z,0
2016-12-07T05:02:35.289Z,0
2016-12-07T05:03:35.907Z,0
2016-12-07T05:04:36.560Z,0
2016-12-07T05:05:37.191Z,0
2016-12-07T05:06:37.842Z,0
2016-12-07T05:07:38.468Z,0
2016-12-07T05:08:39.084Z,0
2016-12-07T05:09:39.710Z,0
2016-12-07T05:10:40.325Z,0
2016-12-07T05:11:41.002Z,0
2016-12-07T05:12:41.648Z,0
2016-12-07T05:13:42.271Z,0
2016-12-07T05:14:42.905Z,0
2016-12-07T05:15:43.580Z,0
2016-12-07T05:16:44.177Z,0
2016-12-07T05:17:44.816Z,0
2016-12-07T05:18:45.474Z,0
2016-12-07T05:19:46.122Z,0
2016-12-07T05:20:46.757Z,0
2016-12-07T05:21:47.374Z,0
2016-12-07T05:22:47.999Z,0
2016-12-07T05:23:48.648Z,0
2016-12-07T05:24:49.267Z,0
2016-12-07T05:25:49.926Z,0
2016-12-07T05:26:50.595Z,0
2016-12-07T05:27:51.224Z,0
2016-12-07T05:28:51.867Z,0
2016-12-07T05:29:52.516Z,0
2016-12-07T05:30:53.153Z,0
2016-12-07T05:31:53.780Z,0
2016-12-07T05:32:54.428Z,0
2016-12-07T05:33:55.079Z,0
2016-12-07T05:34:55.727Z,0
2016-12-07T05:35:56.358Z,0
2016-12-07T05:36:56.993Z,0
2016-12-07T05:37:57.616Z,0
2016-12-07T05:38:58.254Z,0
2016-12-07T05:39:58.918Z,0
2016-12-07T05:40:59.566Z,0
2016-12-07T05:42:00.179Z,0
2016-12-07T05:43:00.817Z,0
2016-12-07T05:44:01.443Z,0
2016-12-07T05:45:02.085Z,0
2016-12-07T05:46:02.706Z,0
2016-12-07T05:47:03.338Z,0
2016-12-07T05:48:04.025Z,0
2016-12-07T05:49:04.670Z,0
2016-12-07T05:50:05.329Z,0
2016-12-07T05:51:05.957Z,0
2016-12-07T05:52:06.584Z,0
2016-12-07T05:53:07.229Z,0
2016-12-07T05:54:07.867Z,0
2016-12-07T05:55:08.499Z,0
2016-12-07T05:56:09.134Z,0
2016-12-07T05:57:09.768Z,0
2016-12-07T05:58:10.434Z,0
2016-12-07T05:59:11.085Z,0
2016-12-07T06:00:11.737Z,0
2016-12-07T06:01:12.379Z,0
2016-12-07T06:02:13.051Z,0
2016-12-07T06:03:13.688Z,0
2016-12-07T06:04:14.362Z,0
2016-12-07T06:05:15.001Z,0
2016-12-07T06:06:15.631Z,0
2016-12-07T06:07:16.265Z,0
2016-12-07T06:08:16.944Z,0
2016-12-07T06:09:17.585Z,0
2016-12-07T06:10:18.238Z,0
2016-12-07T06:11:18.885Z,0
2016-12-07T06:12:19.533Z,0
2016-12-07T06:13:20.171Z,0
2016-12-07T06:14:20.815Z,0
2016-12-07T06:15:21.471Z,0
2016-12-07T06:16:22.130Z,0
2016-12-07T06:17:22.777Z,0
2016-12-07T06:18:23.464Z,0
2016-12-07T06:19:24.103Z,0
2016-12-07T06:20:24.753Z,0
2016-12-07T06:21:25.413Z,0
2016-12-07T06:22:26.078Z,0
2016-12-07T06:23:26.722Z,0
2016-12-07T06:24:27.446Z,0
2016-12-07T06:25:28.041Z,0
2016-12-07T06:26:28.666Z,0
2016-12-07T06:27:29.334Z,0
2016-12-07T06:28:29.990Z,0
2016-12-07T06:29:30.657Z,0
2016-12-07T06:30:31.263Z,0
2016-12-07T06:31:31.942Z,0
2016-12-07T06:32:32.616Z,0
2016-12-07T06:33:33.261Z,0
2016-12-07T06:34:33.917Z,0
2016-12-07T06:35:34.553Z,0
2016-12-07T06:36:35.215Z,0
2016-12-07T06:37:35.837Z,0
2016-12-07T06:38:36.501Z,0
2016-12-07T06:39:37.237Z,0
2016-12-07T06:40:37.870Z,0
2016-12-07T06:41:38.617Z,0
2016-12-07T06:42:39.296Z,0
2016-12-07T06:43:39.934Z,0
2016-12-07T06:44:40.648Z,0
2016-12-07T06:45:41.270Z,0
2016-12-07T06:46:41.945Z,4
2016-12-07T06:47:42.695Z,4
2016-12-07T06:48:43.363Z,0
2016-12-07T06:49:44.042Z,0
2016-12-07T06:50:44.685Z,4
2016-12-07T06:51:45.386Z,4
2016-12-07T06:52:46.137Z,4
2016-12-07T06:53:46.773Z,4
2016-12-07T06:54:47.442Z,4
2016-12-07T06:55:48.167Z,4
2016-12-07T06:56:49.015Z,8
2016-12-07T06:57:49.549Z,8
2016-12-07T06:58:50.296Z,12
2016-12-07T06:59:51.005Z,12
2016-12-07T07:00:51.659Z,12
2016-12-07T07:01:52.314Z,16
2016-12-07T07:02:52.987Z,16
2016-12-07T07:03:53.640Z,20
2016-12-07T07:04:54.299Z,20
2016-12-07T07:05:54.992Z,28
2016-12-07T07:06:55.722Z,28
2016-12-07T07:07:56.417Z,36
2016-12-07T07:08:57.102Z,40
2016-12-07T07:09:57.772Z,44
2016-12-07T07:10:58.429Z,48
2016-12-07T07:11:59.362Z,52
2016-12-07T07:12:59.926Z,56
2016-12-07T07:14:00.623Z,60
2016-12-07T07:15:01.255Z,64
2016-12-07T07:16:01.920Z,72
2016-12-07T07:17:02.551Z,76
2016-12-07T07:18:03.178Z,84
2016-12-07T07:19:04.039Z,84
2016-12-07T07:20:04.689Z,92
2016-12-07T07:21:05.362Z,96
2016-12-07T07:22:06.012Z,100
2016-12-07T07:23:06.688Z,108
2016-12-07T07:24:08.744Z,120
2016-12-07T07:25:09.357Z,128
2016-12-07T07:26:10.008Z,136
2016-12-07T07:27:11.327Z,148
2016-12-07T07:28:11.999Z,160
2016-12-07T07:29:12.648Z,172
2016-12-07T07:30:13.283Z,184
2016-12-07T07:31:13.910Z,196
2016-12-07T07:32:15.539Z,208
2016-12-07T07:33:16.198Z,224
2016-12-07T07:34:16.832Z,240
2016-12-07T07:35:17.505Z,260
2016-12-07T07:36:18.203Z,280
2016-12-07T07:37:18.843Z,300
2016-12-07T07:38:19.517Z,316
2016-12-07T07:39:20.154Z,336
2016-12-07T07:40:20.785Z,348
2016-12-07T07:41:21.435Z,360
2016-12-07T07:42:22.084Z,368
2016-12-07T07:43:22.772Z,368
2016-12-07T07:44:23.450Z,368
2016-12-07T07:45:24.080Z,368
2016-12-07T07:46:24.745Z,368
2016-12-07T07:47:25.395Z,368
2016-12-07T07:48:26.018Z,368
2016-12-07T07:49:26.658Z,372
2016-12-07T07:50:28.176Z,380
2016-12-07T07:51:28.851Z,388
2016-12-07T07:52:29.513Z,400
2016-12-07T07:53:30.149Z,416
2016-12-07T07:54:30.794Z,436
2016-12-07T07:55:31.456Z,456
2016-12-07T07:56:32.122Z,472
2016-12-07T07:57:32.750Z,492
2016-12-07T07:58:33.376Z,512
2016-12-07T07:59:34.021Z,532
2016-12-07T08:00:34.665Z,552
2016-12-07T08:01:35.295Z,580
2016-12-07T08:02:35.939Z,612
2016-12-07T08:03:36.576Z,648
2016-12-07T08:04:37.188Z,692
2016-12-07T08:05:37.798Z,744
2016-12-07T08:06:38.422Z,796
2016-12-07T08:07:39.034Z,852
2016-12-07T08:08:39.652Z,912
2016-12-07T08:09:40.266Z,964
2016-12-07T08:10:40.882Z,1004
2016-12-07T08:11:41.504Z,1024
2016-12-07T08:12:42.146Z,1000
2016-12-07T08:13:42.773Z,960
2016-12-07T08:14:43.415Z,964
2016-12-07T08:15:44.053Z,984
2016-12-07T08:16:44.685Z,1024
2016-12-07T08:17:45.358Z,1084
2016-12-07T08:18:46.003Z,1168
2016-12-07T08:19:46.648Z,1252
2016-12-07T08:20:47.284Z,1300
2016-12-07T08:21:47.984Z,1400
2016-12-07T08:22:48.669Z,1564
2016-12-07T08:23:49.303Z,1644
2016-12-07T08:24:49.990Z,1664
2016-12-07T08:25:50.643Z,1688
2016-12-07T08:26:51.309Z,1724
2016-12-07T08:27:51.974Z,1808
2016-12-07T08:28:52.623Z,1876
2016-12-07T08:29:53.273Z,1892
2016-12-07T08:30:54.071Z,1864
2016-12-07T08:31:55.220Z,1840
2016-12-07T08:32:55.903Z,1820
2016-12-07T08:33:56.573Z,1804
2016-12-07T08:34:57.246Z,1800
2016-12-07T08:35:58.005Z,1796
2016-12-07T08:36:58.680Z,1784
2016-12-07T08:37:59.339Z,1776
2016-12-07T08:38:59.970Z,1764
2016-12-07T08:40:00.652Z,1744
2016-12-07T08:41:01.343Z,1752
2016-12-07T08:42:02.441Z,1796
2016-12-07T08:43:02.725Z,1844
2016-12-07T08:44:03.359Z,1864
2016-12-07T08:45:04.022Z,1852
2016-12-07T08:46:04.706Z,1820
2016-12-07T08:47:05.420Z,1772
2016-12-07T08:48:06.061Z,1792
2016-12-07T08:49:06.716Z,1852
2016-12-07T08:50:07.374Z,1932
2016-12-07T08:51:08.112Z,1972
2016-12-07T08:52:08.703Z,2048
2016-12-07T08:53:09.344Z,2048
2016-12-07T08:54:10.140Z,2060
2016-12-07T08:55:10.711Z,2088
2016-12-07T08:56:11.347Z,2056
2016-12-07T08:57:12.026Z,2020
2016-12-07T08:58:12.675Z,2004
2016-12-07T08:59:13.372Z,2056
2016-12-07T09:00:14.088Z,2192
2016-12-07T09:01:14.757Z,2300
2016-12-07T09:02:15.387Z,2368
2016-12-07T09:03:16.073Z,2440
2016-12-07T09:04:16.713Z,2524
2016-12-07T09:05:17.894Z,2564
2016-12-07T09:06:18.574Z,2584
2016-12-07T09:07:19.291Z,2572
2016-12-07T09:08:19.936Z,2584
2016-12-07T09:09:20.667Z,2656
2016-12-07T09:10:21.262Z,2720
2016-12-07T09:11:22.874Z,2764
2016-12-07T09:12:23.572Z,2824
2016-12-07T09:13:24.251Z,2912
2016-12-07T09:14:24.886Z,3000
2016-12-07T09:15:25.540Z,3068
2016-12-07T09:16:26.199Z,3120
2016-12-07T09:17:26.918Z,3184
2016-12-07T09:18:27.650Z,3240
2016-12-07T09:19:29.310Z,3296
2016-12-07T09:20:30.049Z,3336
2016-12-07T09:21:30.715Z,3356
2016-12-07T09:22:31.487Z,3340
2016-12-07T09:23:32.078Z,3292
2016-12-07T09:24:32.751Z,3208
2016-12-07T09:25:33.424Z,3088
2016-12-07T09:26:34.161Z,2992
2016-12-07T09:27:34.847Z,2908
2016-12-07T09:28:35.513Z,2828
2016-12-07T09:29:36.145Z,2748
2016-12-07T09:30:36.799Z,2696
2016-12-07T09:31:37.434Z,2676
2016-12-07T09:32:38.076Z,2700
2016-12-07T09:33:38.704Z,2736
2016-12-07T09:34:39.343Z,2792
2016-12-07T09:35:39.953Z,2896
2016-12-07T09:36:40.587Z,3036
2016-12-07T09:37:41.221Z,3196
2016-12-07T09:38:41.867Z,3348
2016-12-07T09:39:42.491Z,3508
2016-12-07T09:40:43.121Z,3660
2016-12-07T09:41:43.748Z,3824
2016-12-07T09:42:44.382Z,3964
2016-12-07T09:43:45.019Z,4100
2016-12-07T09:44:45.661Z,4208
2016-12-07T09:45:46.354Z,4260
2016-12-07T09:46:46.943Z,4272
2016-12-07T09:47:47.571Z,4232
2016-12-07T09:48:48.196Z,4140
2016-12-07T09:49:49.026Z,3948
2016-12-07T09:50:49.668Z,3692
2016-12-07T09:51:50.307Z,3524
2016-12-07T09:52:50.980Z,3440
2016-12-07T09:53:51.642Z,3424
2016-12-07T09:54:52.368Z,3424
2016-12-07T09:55:52.979Z,3440
2016-12-07T09:56:53.666Z,3448
2016-12-07T09:57:54.290Z,3420
2016-12-07T09:58:54.992Z,3344
2016-12-07T09:59:55.629Z,3256
2016-12-07T10:00:56.300Z,3172
2016-12-07T10:01:56.921Z,3120
2016-12-07T10:02:57.540Z,3112
2016-12-07T10:03:58.165Z,3152
2016-12-07T10:04:58.787Z,3236
2016-12-07T10:05:59.408Z,3356
2016-12-07T10:07:00.027Z,3608
2016-12-07T10:08:00.692Z,3700
2016-12-07T10:09:01.335Z,3628
2016-12-07T10:10:01.986Z,3440
2016-12-07T10:11:02.669Z,3172
2016-12-07T10:12:03.322Z,3040
2016-12-07T10:13:04.018Z,3056
2016-12-07T10:14:04.643Z,3288
2016-12-07T10:15:05.294Z,3528
2016-12-07T10:16:05.972Z,3832
2016-12-07T10:17:06.613Z,4124
2016-12-07T10:18:07.330Z,4372
2016-12-07T10:19:07.996Z,4492
2016-12-07T10:20:08.620Z,4508
2016-12-07T10:21:09.244Z,4548
2016-12-07T10:22:09.903Z,4628
2016-12-07T10:23:10.497Z,4712
2016-12-07T10:24:11.136Z,4784
2016-12-07T10:25:11.769Z,4892
2016-12-07T10:26:12.442Z,5036
2016-12-07T10:27:13.243Z,5172
2016-12-07T10:28:13.974Z,5328
2016-12-07T10:29:14.613Z,5448
2016-12-07T10:30:15.301Z,5540
2016-12-07T10:31:15.963Z,5620
2016-12-07T10:32:16.665Z,5708
2016-12-07T10:33:17.303Z,5724
2016-12-07T10:34:17.960Z,5688
2016-12-07T10:35:18.684Z,5544
2016-12-07T10:36:19.333Z,5236
2016-12-07T10:37:20.088Z,5040
2016-12-07T10:38:20.796Z,4832
2016-12-07T10:39:21.554Z,4488
2016-12-07T10:40:22.222Z,4096
2016-12-07T10:41:22.898Z,3960
2016-12-07T10:42:23.549Z,3980
2016-12-07T10:43:24.224Z,4020
2016-12-07T10:44:24.948Z,4044
2016-12-07T10:45:25.623Z,4104
2016-12-07T10:46:26.304Z,4204
2016-12-07T10:47:26.994Z,4400
2016-12-07T10:48:27.642Z,4616
2016-12-07T10:49:28.340Z,4664
2016-12-07T10:50:28.995Z,4596
2016-12-07T10:51:29.621Z,4460
2016-12-07T10:52:30.242Z,4316
2016-12-07T10:53:30.893Z,4112
2016-12-07T10:54:31.513Z,3972
2016-12-07T10:55:32.161Z,4016
2016-12-07T10:56:32.813Z,4116
2016-12-07T10:57:33.462Z,4240
2016-12-07T10:58:34.125Z,4372
2016-12-07T10:59:34.775Z,4532
2016-12-07T11:00:35.426Z,4576
2016-12-07T11:01:36.071Z,4576
2016-12-07T11:02:36.748Z,4584
2016-12-07T11:03:37.386Z,4616
2016-12-07T11:04:38.050Z,4568
2016-12-07T11:05:38.819Z,4492
2016-12-07T11:06:39.494Z,4428
2016-12-07T11:07:40.187Z,4376
2016-12-07T11:08:40.841Z,4348
2016-12-07T11:09:41.511Z,4348
2016-12-07T11:10:42.128Z,4360
2016-12-07T11:11:42.768Z,4372
2016-12-07T11:12:43.435Z,4384
2016-12-07T11:13:44.097Z,4364
2016-12-07T11:14:44.761Z,4332
2016-12-07T11:15:45.398Z,4304
2016-12-07T11:16:46.014Z,4212
2016-12-07T11:17:46.640Z,4188
2016-12-07T11:18:47.261Z,4308
2016-12-07T11:19:47.913Z,4448
2016-12-07T11:20:48.552Z,4552
2016-12-07T11:21:49.260Z,4600
2016-12-07T11:22:49.941Z,4588
2016-12-07T11:23:50.615Z,4548
2016-12-07T11:24:51.229Z,4560
2016-12-07T11:25:51.856Z,4640
2016-12-07T11:26:52.495Z,4736
2016-12-07T11:27:53.120Z,4788
2016-12-07T11:28:53.744Z,4760
2016-12-07T11:29:54.377Z,4712
2016-12-07T11:30:55.002Z,4664
2016-12-07T11:31:55.631Z,4612
2016-12-07T11:32:56.256Z,4540
2016-12-07T11:33:56.894Z,4428
2016-12-07T11:34:57.524Z,4328
2016-12-07T11:35:58.171Z,4236
2016-12-07T11:36:58.799Z,4196
2016-12-07T11:37:59.434Z,4260
2016-12-07T11:39:00.073Z,4316
2016-12-07T11:40:00.723Z,4304
2016-12-07T11:41:01.337Z,4296
2016-12-07T11:42:01.961Z,4344
2016-12-07T11:43:02.630Z,4440
2016-12-07T11:44:03.259Z,4524
2016-12-07T11:45:03.903Z,4600
2016-12-07T11:46:04.590Z,4652
2016-12-07T11:47:05.227Z,4656
2016-12-07T11:48:05.865Z,4584
2016-12-07T11:49:06.485Z,4512
2016-12-07T11:50:07.121Z,4424
2016-12-07T11:51:07.745Z,4336
2016-12-07T11:52:08.379Z,4228
2016-12-07T11:53:09.005Z,4120
2016-12-07T11:54:09.631Z,4040
2016-12-07T11:55:10.246Z,4000
2016-12-07T11:56:10.875Z,3984
2016-12-07T11:57:11.607Z,4004
2016-12-07T11:58:12.259Z,4024
2016-12-07T11:59:12.911Z,4064
2016-12-07T12:00:13.535Z,4104
2016-12-07T12:01:14.170Z,4168
2016-12-07T12:02:14.808Z,4284
2016-12-07T12:03:15.469Z,4404
2016-12-07T12:04:16.111Z,4496
2016-12-07T12:05:16.740Z,4572
2016-12-07T12:06:17.369Z,4716
2016-12-07T12:07:17.993Z,4844
2016-12-07T12:08:18.630Z,4928
2016-12-07T12:09:19.281Z,4952
2016-12-07T12:10:19.918Z,4888
2016-12-07T12:11:20.598Z,4796
2016-12-07T12:12:21.243Z,4636
2016-12-07T12:13:21.878Z,4460
2016-12-07T12:14:22.499Z,4268
2016-12-07T12:15:23.121Z,4068
2016-12-07T12:16:23.734Z,3912
2016-12-07T12:17:24.465Z,3788
2016-12-07T12:18:25.107Z,3692
2016-12-07T12:19:25.769Z,3616
2016-12-07T12:20:26.411Z,3540
2016-12-07T12:21:27.066Z,3496
2016-12-07T12:22:27.709Z,3460
2016-12-07T12:23:28.338Z,3428
2016-12-07T12:24:28.988Z,3388
2016-12-07T12:25:29.633Z,3336
2016-12-07T12:26:30.284Z,3280
2016-12-07T12:27:30.920Z,3224
2016-12-07T12:28:31.585Z,3184
2016-12-07T12:29:32.240Z,3180
2016-12-07T12:30:32.871Z,3196
2016-12-07T12:31:33.530Z,3236
2016-12-07T12:32:34.176Z,3268
2016-12-07T12:33:34.808Z,3292
2016-12-07T12:34:35.448Z,3300
2016-12-07T12:35:36.077Z,3280
2016-12-07T12:36:36.724Z,3252
2016-12-07T12:37:37.403Z,3224
2016-12-07T12:38:38.038Z,3204
2016-12-07T12:39:38.660Z,3176
2016-12-07T12:40:39.303Z,3144
2016-12-07T12:41:39.940Z,3144
2016-12-07T12:42:40.610Z,3176
2016-12-07T12:43:41.362Z,3200
2016-12-07T12:44:41.995Z,3216
2016-12-07T12:45:42.681Z,3236
2016-12-07T12:46:43.333Z,3240
2016-12-07T12:47:43.988Z,3216
2016-12-07T12:48:44.632Z,3160
2016-12-07T12:49:45.270Z,3132
2016-12-07T12:50:45.907Z,3040
2016-12-07T12:51:46.736Z,2824
2016-12-07T12:52:47.381Z,2596
2016-12-07T12:53:48.016Z,2468
2016-12-07T12:54:48.718Z,2392
2016-12-07T12:55:49.380Z,2364
2016-12-07T12:56:50.081Z,2328
2016-12-07T12:57:50.707Z,2204
2016-12-07T12:58:51.361Z,2072
2016-12-07T12:59:52.048Z,1996
2016-12-07T13:00:52.712Z,1968
2016-12-07T13:01:53.329Z,1908
2016-12-07T13:02:53.975Z,1864
2016-12-07T13:03:54.656Z,1860
2016-12-07T13:04:55.282Z,1860
2016-12-07T13:05:55.935Z,1920
2016-12-07T13:06:56.605Z,2028
2016-12-07T13:07:57.247Z,2132
2016-12-07T13:08:57.900Z,2168
2016-12-07T13:09:58.524Z,2128
2016-12-07T13:10:59.191Z,2020
2016-12-07T13:11:59.832Z,1932
2016-12-07T13:13:00.478Z,1896
2016-12-07T13:14:01.118Z,1872
2016-12-07T13:15:01.776Z,1856
2016-12-07T13:16:02.410Z,1832
2016-12-07T13:17:03.118Z,1812
2016-12-07T13:18:03.772Z,1804
2016-12-07T13:19:04.410Z,1812
2016-12-07T13:20:05.055Z,1832
2016-12-07T13:21:05.683Z,1848
2016-12-07T13:22:06.313Z,1880
2016-12-07T13:23:06.951Z,1916
2016-12-07T13:24:07.597Z,1952
2016-12-07T13:25:08.241Z,1980
2016-12-07T13:26:08.899Z,2024
2016-12-07T13:27:09.544Z,2068
2016-12-07T13:28:10.185Z,2092
2016-12-07T13:29:10.833Z,2096
2016-12-07T13:30:11.479Z,2096
2016-12-07T13:31:12.127Z,2076
2016-12-07T13:32:12.788Z,2044
2016-12-07T13:33:13.462Z,2020
2016-12-07T13:34:14.109Z,2004
2016-12-07T13:35:14.785Z,1984
2016-12-07T13:36:15.417Z,1952
2016-12-07T13:37:16.053Z,1924
2016-12-07T13:38:16.699Z,1892
2016-12-07T13:39:17.353Z,1852
2016-12-07T13:40:17.992Z,1812
2016-12-07T13:41:18.617Z,1780
2016-12-07T13:42:19.286Z,1716
2016-12-07T13:43:19.933Z,1636
2016-12-07T13:44:20.562Z,1564
2016-12-07T13:45:21.181Z,1480
2016-12-07T13:46:21.803Z,1364
2016-12-07T13:47:22.432Z,1296
2016-12-07T13:48:23.053Z,1272
2016-12-07T13:49:23.663Z,1256
2016-12-07T13:50:24.301Z,1224
2016-12-07T13:51:24.896Z,1176
2016-12-07T13:52:25.601Z,1136
2016-12-07T13:53:26.218Z,1120
2016-12-07T13:54:26.843Z,1096
2016-12-07T13:55:27.680Z,1024
2016-12-07T13:56:28.308Z,952
2016-12-07T13:57:28.933Z,928
2016-12-07T13:58:29.560Z,960
2016-12-07T13:59:30.225Z,1012
2016-12-07T14:00:30.868Z,1048
2016-12-07T14:01:31.505Z,1072
2016-12-07T14:02:32.188Z,1084
2016-12-07T14:03:32.879Z,1088
2016-12-07T14:04:33.560Z,1084
2016-12-07T14:05:34.187Z,1080
2016-12-07T14:06:34.860Z,1068
2016-12-07T14:07:35.542Z,1044
2016-12-07T14:08:36.193Z,1024
2016-12-07T14:09:36.879Z,992
2016-12-07T14:10:37.549Z,972
2016-12-07T14:11:38.177Z,960
2016-12-07T14:12:38.839Z,948